sensor_id;sensor_type;location;lat;lon;timestamp;pressure;altitude;pressure_sealevel;temperature
15607;BMP180;7865;50.918;4.510;2023-03-03T00:04:50;101770.00;;;0.40
15607;BMP180;7865;50.918;4.510;2023-03-03T00:09:52;101775.00;;;0.40
15607;BMP180;7865;50.918;4.510;2023-03-03T00:14:54;101785.00;;;0.30
15607;BMP180;7865;50.918;4.510;2023-03-03T00:19:56;101783.00;;;0.30
15607;BMP180;7865;50.918;4.510;2023-03-03T00:30:26;101788.00;;;0.30
15607;BMP180;7865;50.918;4.510;2023-03-03T00:35:30;101788.00;;;0.20
15607;BMP180;7865;50.918;4.510;2023-03-03T00:40:39;101786.00;;;0.10
15607;BMP180;7865;50.918;4.510;2023-03-03T00:45:47;101789.00;;;0.10
15607;BMP180;7865;50.918;4.510;2023-03-03T00:50:52;101789.00;;;0.00
15607;BMP180;7865;50.918;4.510;2023-03-03T00:55:55;101794.00;;;-0.10
15607;BMP180;7865;50.918;4.510;2023-03-03T01:00:58;101791.00;;;-0.10
15607;BMP180;7865;50.918;4.510;2023-03-03T01:06:11;101791.00;;;-0.20
15607;BMP180;7865;50.918;4.510;2023-03-03T01:11:23;101793.00;;;-0.30
15607;BMP180;7865;50.918;4.510;2023-03-03T01:16:25;101796.00;;;-0.40
15607;BMP180;7865;50.918;4.510;2023-03-03T01:21:27;101806.00;;;-0.50
15607;BMP180;7865;50.918;4.510;2023-03-03T01:26:29;101791.00;;;-0.60
15607;BMP180;7865;50.918;4.510;2023-03-03T01:31:32;101800.00;;;-0.70
15607;BMP180;7865;50.918;4.510;2023-03-03T01:36:35;101798.00;;;-0.70
15607;BMP180;7865;50.918;4.510;2023-03-03T01:41:38;101802.00;;;-0.70
15607;BMP180;7865;50.918;4.510;2023-03-03T01:46:54;101803.00;;;-0.80
15607;BMP180;7865;50.918;4.510;2023-03-03T01:52:00;101805.00;;;-0.80
15607;BMP180;7865;50.918;4.510;2023-03-03T01:57:05;101804.00;;;-0.80
15607;BMP180;7865;50.918;4.510;2023-03-03T02:02:08;101797.00;;;-0.80
15607;BMP180;7865;50.918;4.510;2023-03-03T02:07:10;101793.00;;;-0.70
15607;BMP180;7865;50.918;4.510;2023-03-03T02:12:16;101792.00;;;-0.60
15607;BMP180;7865;50.918;4.510;2023-03-03T02:17:19;101784.00;;;-0.50
15607;BMP180;7865;50.918;4.510;2023-03-03T02:22:47;101777.00;;;-0.50
15607;BMP180;7865;50.918;4.510;2023-03-03T02:27:46;101788.00;;;-0.60
15607;BMP180;7865;50.918;4.510;2023-03-03T02:32:49;101789.00;;;-0.60
15607;BMP180;7865;50.918;4.510;2023-03-03T02:37:51;101784.00;;;-0.40
15607;BMP180;7865;50.918;4.510;2023-03-03T02:42:54;101785.00;;;-0.30
15607;BMP180;7865;50.918;4.510;2023-03-03T02:47:57;101791.00;;;-0.30
15607;BMP180;7865;50.918;4.510;2023-03-03T02:52:59;101797.00;;;-0.40
15607;BMP180;7865;50.918;4.510;2023-03-03T02:58:02;101808.00;;;-0.40
15607;BMP180;7865;50.918;4.510;2023-03-03T03:03:05;101807.00;;;-0.30
15607;BMP180;7865;50.918;4.510;2023-03-03T03:08:08;101803.00;;;0.00
15607;BMP180;7865;50.918;4.510;2023-03-03T03:13:10;101804.00;;;0.20
15607;BMP180;7865;50.918;4.510;2023-03-03T03:18:16;101796.00;;;0.40
15607;BMP180;7865;50.918;4.510;2023-03-03T03:23:19;101798.00;;;0.50
15607;BMP180;7865;50.918;4.510;2023-03-03T03:28:24;101809.00;;;0.60
15607;BMP180;7865;50.918;4.510;2023-03-03T03:33:27;101809.00;;;0.60
15607;BMP180;7865;50.918;4.510;2023-03-03T03:38:32;101817.00;;;0.70
15607;BMP180;7865;50.918;4.510;2023-03-03T03:43:34;101822.00;;;0.70
15607;BMP180;7865;50.918;4.510;2023-03-03T03:48:37;101823.00;;;0.70
15607;BMP180;7865;50.918;4.510;2023-03-03T03:53:41;101830.00;;;0.60
15607;BMP180;7865;50.918;4.510;2023-03-03T03:58:44;101828.00;;;0.60
15607;BMP180;7865;50.918;4.510;2023-03-03T04:03:48;101837.00;;;0.60
15607;BMP180;7865;50.918;4.510;2023-03-03T04:08:55;101834.00;;;0.60
15607;BMP180;7865;50.918;4.510;2023-03-03T04:13:59;101833.00;;;0.60
15607;BMP180;7865;50.918;4.510;2023-03-03T04:19:01;101834.00;;;0.60
15607;BMP180;7865;50.918;4.510;2023-03-03T04:24:06;101834.00;;;0.60
15607;BMP180;7865;50.918;4.510;2023-03-03T04:29:09;101842.00;;;0.60
15607;BMP180;7865;50.918;4.510;2023-03-03T04:34:12;101837.00;;;0.50
15607;BMP180;7865;50.918;4.510;2023-03-03T04:39:15;101840.00;;;0.60
15607;BMP180;7865;50.918;4.510;2023-03-03T04:44:17;101845.00;;;0.60
15607;BMP180;7865;50.918;4.510;2023-03-03T04:49:19;101851.00;;;0.60
15607;BMP180;7865;50.918;4.510;2023-03-03T04:54:21;101853.00;;;0.60
15607;BMP180;7865;50.918;4.510;2023-03-03T04:59:24;101862.00;;;0.70
15607;BMP180;7865;50.918;4.510;2023-03-03T05:04:27;101870.00;;;0.60
15607;BMP180;7865;50.918;4.510;2023-03-03T05:09:29;101870.00;;;0.60
15607;BMP180;7865;50.918;4.510;2023-03-03T05:14:31;101881.00;;;0.60
15607;BMP180;7865;50.918;4.510;2023-03-03T05:19:33;101875.00;;;0.60
15607;BMP180;7865;50.918;4.510;2023-03-03T05:24:36;101880.00;;;0.60
15607;BMP180;7865;50.918;4.510;2023-03-03T05:29:38;101880.00;;;0.60
15607;BMP180;7865;50.918;4.510;2023-03-03T05:34:40;101883.00;;;0.60
15607;BMP180;7865;50.918;4.510;2023-03-03T05:39:42;101888.00;;;0.60
15607;BMP180;7865;50.918;4.510;2023-03-03T05:44:45;101893.00;;;0.60
15607;BMP180;7865;50.918;4.510;2023-03-03T05:49:47;101896.00;;;0.50
15607;BMP180;7865;50.918;4.510;2023-03-03T05:54:49;101898.00;;;0.50
15607;BMP180;7865;50.918;4.510;2023-03-03T05:59:51;101909.00;;;0.50
15607;BMP180;7865;50.918;4.510;2023-03-03T06:04:53;101906.00;;;0.60
15607;BMP180;7865;50.918;4.510;2023-03-03T06:09:55;101912.00;;;0.60
15607;BMP180;7865;50.918;4.510;2023-03-03T06:14:59;101907.00;;;0.60
15607;BMP180;7865;50.918;4.510;2023-03-03T06:20:01;101918.00;;;0.60
15607;BMP180;7865;50.918;4.510;2023-03-03T06:25:04;101927.00;;;0.60
15607;BMP180;7865;50.918;4.510;2023-03-03T06:30:07;101928.00;;;0.60
15607;BMP180;7865;50.918;4.510;2023-03-03T06:35:09;101932.00;;;0.60
15607;BMP180;7865;50.918;4.510;2023-03-03T06:40:11;101943.00;;;0.70
15607;BMP180;7865;50.918;4.510;2023-03-03T06:45:14;101947.00;;;0.70
15607;BMP180;7865;50.918;4.510;2023-03-03T06:50:19;101951.00;;;0.70
15607;BMP180;7865;50.918;4.510;2023-03-03T06:55:22;101953.00;;;0.70
15607;BMP180;7865;50.918;4.510;2023-03-03T07:00:26;101963.00;;;0.70
15607;BMP180;7865;50.918;4.510;2023-03-03T07:05:31;101976.00;;;0.80
15607;BMP180;7865;50.918;4.510;2023-03-03T07:10:35;101980.00;;;0.80
15607;BMP180;7865;50.918;4.510;2023-03-03T07:15:37;101971.00;;;0.80
15607;BMP180;7865;50.918;4.510;2023-03-03T07:20:39;101989.00;;;0.80
15607;BMP180;7865;50.918;4.510;2023-03-03T07:25:42;102000.00;;;0.80
15607;BMP180;7865;50.918;4.510;2023-03-03T07:30:46;102004.00;;;0.80
15607;BMP180;7865;50.918;4.510;2023-03-03T07:35:49;102008.00;;;0.80
15607;BMP180;7865;50.918;4.510;2023-03-03T07:40:53;102005.00;;;0.90
15607;BMP180;7865;50.918;4.510;2023-03-03T07:47:01;102023.00;;;1.00
15607;BMP180;7865;50.918;4.510;2023-03-03T07:51:44;102012.00;;;1.00
15607;BMP180;7865;50.918;4.510;2023-03-03T07:56:46;102020.00;;;1.10
15607;BMP180;7865;50.918;4.510;2023-03-03T08:01:54;102031.00;;;1.10
15607;BMP180;7865;50.918;4.510;2023-03-03T08:06:59;102030.00;;;1.20
15607;BMP180;7865;50.918;4.510;2023-03-03T08:12:17;102036.00;;;1.20
15607;BMP180;7865;50.918;4.510;2023-03-03T08:17:23;102036.00;;;1.30
15607;BMP180;7865;50.918;4.510;2023-03-03T08:22:32;102048.00;;;1.40
15607;BMP180;7865;50.918;4.510;2023-03-03T08:27:36;102048.00;;;1.50
15607;BMP180;7865;50.918;4.510;2023-03-03T08:32:38;102038.00;;;1.60
15607;BMP180;7865;50.918;4.510;2023-03-03T08:37:40;102053.00;;;1.70
15607;BMP180;7865;50.918;4.510;2023-03-03T08:42:42;102059.00;;;1.80
15607;BMP180;7865;50.918;4.510;2023-03-03T08:47:44;102066.00;;;1.90
15607;BMP180;7865;50.918;4.510;2023-03-03T08:52:47;102061.00;;;2.00
15607;BMP180;7865;50.918;4.510;2023-03-03T08:57:49;102076.00;;;2.10
15607;BMP180;7865;50.918;4.510;2023-03-03T09:02:51;102085.00;;;2.10
15607;BMP180;7865;50.918;4.510;2023-03-03T09:07:54;102080.00;;;2.10
15607;BMP180;7865;50.918;4.510;2023-03-03T09:12:58;102078.00;;;2.20
15607;BMP180;7865;50.918;4.510;2023-03-03T09:18:20;102092.00;;;2.40
15607;BMP180;7865;50.918;4.510;2023-03-03T09:23:40;102102.00;;;2.50
15607;BMP180;7865;50.918;4.510;2023-03-03T09:28:43;102096.00;;;2.50
15607;BMP180;7865;50.918;4.510;2023-03-03T09:33:46;102101.00;;;2.50
15607;BMP180;7865;50.918;4.510;2023-03-03T09:38:50;102112.00;;;2.60
15607;BMP180;7865;50.918;4.510;2023-03-03T09:49:38;102113.00;;;2.80
15607;BMP180;7865;50.918;4.510;2023-03-03T09:54:53;102112.00;;;2.90
15607;BMP180;7865;50.918;4.510;2023-03-03T10:11:37;102122.00;;;3.70
15607;BMP180;7865;50.918;4.510;2023-03-03T10:44:22;102120.00;;;5.10
15607;BMP180;7865;50.918;4.510;2023-03-03T11:06:05;102125.00;;;5.70
15607;BMP180;7865;50.918;4.510;2023-03-03T11:27:45;102126.00;;;6.70
15607;BMP180;7865;50.918;4.510;2023-03-03T11:33:02;102114.00;;;7.10
15607;BMP180;7865;50.918;4.510;2023-03-03T11:38:25;102122.00;;;7.60
15607;BMP180;7865;50.918;4.510;2023-03-03T11:54:00;102109.00;;;8.00
15607;BMP180;7865;50.918;4.510;2023-03-03T12:04:40;102104.00;;;8.10
15607;BMP180;7865;50.918;4.510;2023-03-03T12:20:21;102094.00;;;7.90
15607;BMP180;7865;50.918;4.510;2023-03-03T12:46:31;102073.00;;;9.70
15607;BMP180;7865;50.918;4.510;2023-03-03T12:51:56;102070.00;;;10.00
15607;BMP180;7865;50.918;4.510;2023-03-03T12:57:34;102069.00;;;10.50
15607;BMP180;7865;50.918;4.510;2023-03-03T13:03:01;102068.00;;;10.70
15607;BMP180;7865;50.918;4.510;2023-03-03T13:08:28;102061.00;;;10.80
15607;BMP180;7865;50.918;4.510;2023-03-03T13:13:59;102057.00;;;11.10
15607;BMP180;7865;50.918;4.510;2023-03-03T13:19:31;102052.00;;;11.60
15607;BMP180;7865;50.918;4.510;2023-03-03T13:24:57;102051.00;;;11.60
15607;BMP180;7865;50.918;4.510;2023-03-03T13:30:21;102043.00;;;11.90
15607;BMP180;7865;50.918;4.510;2023-03-03T13:36:12;102038.00;;;12.30
15607;BMP180;7865;50.918;4.510;2023-03-03T13:41:24;102043.00;;;11.80
15607;BMP180;7865;50.918;4.510;2023-03-03T13:52:08;102028.00;;;11.00
15607;BMP180;7865;50.918;4.510;2023-03-03T14:09:17;102011.00;;;12.50
15607;BMP180;7865;50.918;4.510;2023-03-03T14:19:34;101997.00;;;14.10
15607;BMP180;7865;50.918;4.510;2023-03-03T14:25:00;102003.00;;;14.30
15607;BMP180;7865;50.918;4.510;2023-03-03T14:35:32;101986.00;;;13.70
15607;BMP180;7865;50.918;4.510;2023-03-03T14:40:36;101981.00;;;13.10
15607;BMP180;7865;50.918;4.510;2023-03-03T14:45:40;101964.00;;;14.30
15607;BMP180;7865;50.918;4.510;2023-03-03T14:50:51;101977.00;;;13.60
15607;BMP180;7865;50.918;4.510;2023-03-03T14:55:53;101930.00;;;15.30
15607;BMP180;7865;50.918;4.510;2023-03-03T15:06:28;101920.00;;;14.80
15607;BMP180;7865;50.918;4.510;2023-03-03T15:11:32;101937.00;;;16.40
15607;BMP180;7865;50.918;4.510;2023-03-03T15:16:34;101921.00;;;16.80
15607;BMP180;7865;50.918;4.510;2023-03-03T15:21:43;102001.00;;;13.40
15607;BMP180;7865;50.918;4.510;2023-03-03T15:27:09;101966.00;;;11.60
15607;BMP180;7865;50.918;4.510;2023-03-03T15:37:58;101977.00;;;9.40
15607;BMP180;7865;50.918;4.510;2023-03-03T15:49:11;101983.00;;;9.00
15607;BMP180;7865;50.918;4.510;2023-03-03T15:59:47;101970.00;;;8.40
15607;BMP180;7865;50.918;4.510;2023-03-03T16:05:33;101967.00;;;8.00
15607;BMP180;7865;50.918;4.510;2023-03-03T16:16:19;101980.00;;;7.30
15607;BMP180;7865;50.918;4.510;2023-03-03T17:09:27;101997.00;;;6.40
15607;BMP180;7865;50.918;4.510;2023-03-03T17:14:38;101999.00;;;6.30
15607;BMP180;7865;50.918;4.510;2023-03-03T17:25:36;102017.00;;;6.10
15607;BMP180;7865;50.918;4.510;2023-03-03T17:30:47;102016.00;;;6.10
15607;BMP180;7865;50.918;4.510;2023-03-03T17:41:30;102020.00;;;5.70
15607;BMP180;7865;50.918;4.510;2023-03-03T17:46:44;102025.00;;;5.40
15607;BMP180;7865;50.918;4.510;2023-03-03T18:08:13;102042.00;;;4.80
15607;BMP180;7865;50.918;4.510;2023-03-03T18:13:41;102040.00;;;4.60
15607;BMP180;7865;50.918;4.510;2023-03-03T18:30:26;102052.00;;;5.00
15607;BMP180;7865;50.918;4.510;2023-03-03T18:35:33;102056.00;;;5.20
15607;BMP180;7865;50.918;4.510;2023-03-03T18:56:45;102068.00;;;5.30
15607;BMP180;7865;50.918;4.510;2023-03-03T19:01:47;102059.00;;;5.30
15607;BMP180;7865;50.918;4.510;2023-03-03T19:06:54;102067.00;;;5.30
15607;BMP180;7865;50.918;4.510;2023-03-03T19:11:57;102063.00;;;5.30
15607;BMP180;7865;50.918;4.510;2023-03-03T19:22:27;102069.00;;;5.20
15607;BMP180;7865;50.918;4.510;2023-03-03T19:44:20;102070.00;;;5.20
15607;BMP180;7865;50.918;4.510;2023-03-03T19:49:59;102080.00;;;5.20
15607;BMP180;7865;50.918;4.510;2023-03-03T19:55:31;102087.00;;;5.30
15607;BMP180;7865;50.918;4.510;2023-03-03T20:00:41;102086.00;;;5.30
15607;BMP180;7865;50.918;4.510;2023-03-03T20:06:18;102089.00;;;5.40
15607;BMP180;7865;50.918;4.510;2023-03-03T20:16:41;102109.00;;;5.50
15607;BMP180;7865;50.918;4.510;2023-03-03T20:22:32;102106.00;;;5.50
15607;BMP180;7865;50.918;4.510;2023-03-03T20:28:02;102114.00;;;5.50
15607;BMP180;7865;50.918;4.510;2023-03-03T20:39:01;102119.00;;;5.50
15607;BMP180;7865;50.918;4.510;2023-03-03T20:44:22;102118.00;;;5.50
15607;BMP180;7865;50.918;4.510;2023-03-03T21:05:30;102143.00;;;5.60
15607;BMP180;7865;50.918;4.510;2023-03-03T21:10:34;102149.00;;;5.60
15607;BMP180;7865;50.918;4.510;2023-03-03T21:15:36;102143.00;;;5.60
15607;BMP180;7865;50.918;4.510;2023-03-03T21:20:40;102148.00;;;5.60
15607;BMP180;7865;50.918;4.510;2023-03-03T21:25:46;102141.00;;;5.60
15607;BMP180;7865;50.918;4.510;2023-03-03T21:31:16;102145.00;;;5.60
15607;BMP180;7865;50.918;4.510;2023-03-03T21:36:20;102148.00;;;5.60
15607;BMP180;7865;50.918;4.510;2023-03-03T21:41:24;102150.00;;;5.60
15607;BMP180;7865;50.918;4.510;2023-03-03T21:46:26;102159.00;;;5.60
15607;BMP180;7865;50.918;4.510;2023-03-03T21:51:28;102153.00;;;5.60
15607;BMP180;7865;50.918;4.510;2023-03-03T21:56:30;102170.00;;;5.60
15607;BMP180;7865;50.918;4.510;2023-03-03T22:01:33;102163.00;;;5.50
15607;BMP180;7865;50.918;4.510;2023-03-03T22:06:39;102172.00;;;5.50
15607;BMP180;7865;50.918;4.510;2023-03-03T22:11:41;102158.00;;;5.50
15607;BMP180;7865;50.918;4.510;2023-03-03T22:16:43;102155.00;;;5.40
15607;BMP180;7865;50.918;4.510;2023-03-03T22:21:45;102161.00;;;5.40
15607;BMP180;7865;50.918;4.510;2023-03-03T22:26:47;102172.00;;;5.40
15607;BMP180;7865;50.918;4.510;2023-03-03T22:31:50;102169.00;;;5.30
15607;BMP180;7865;50.918;4.510;2023-03-03T22:36:53;102164.00;;;5.30
15607;BMP180;7865;50.918;4.510;2023-03-03T22:41:55;102163.00;;;5.20
15607;BMP180;7865;50.918;4.510;2023-03-03T22:46:57;102163.00;;;5.20
15607;BMP180;7865;50.918;4.510;2023-03-03T22:51:59;102159.00;;;5.20
15607;BMP180;7865;50.918;4.510;2023-03-03T22:57:03;102167.00;;;5.20
15607;BMP180;7865;50.918;4.510;2023-03-03T23:02:05;102154.00;;;5.20
15607;BMP180;7865;50.918;4.510;2023-03-03T23:07:07;102159.00;;;5.20
15607;BMP180;7865;50.918;4.510;2023-03-03T23:12:09;102148.00;;;5.10
15607;BMP180;7865;50.918;4.510;2023-03-03T23:17:11;102161.00;;;5.10
15607;BMP180;7865;50.918;4.510;2023-03-03T23:22:14;102163.00;;;5.10
15607;BMP180;7865;50.918;4.510;2023-03-03T23:27:17;102154.00;;;5.10
15607;BMP180;7865;50.918;4.510;2023-03-03T23:32:19;102161.00;;;5.10
15607;BMP180;7865;50.918;4.510;2023-03-03T23:37:25;102167.00;;;5.10
15607;BMP180;7865;50.918;4.510;2023-03-03T23:42:27;102161.00;;;5.00
15607;BMP180;7865;50.918;4.510;2023-03-03T23:47:31;102165.00;;;5.00
15607;BMP180;7865;50.918;4.510;2023-03-03T23:52:33;102157.00;;;5.00
15607;BMP180;7865;50.918;4.510;2023-03-03T23:57:35;102164.00;;;5.00
